createdAt,value
2023-01-27T00:00:52.975Z,37.65
2023-01-27T00:03:20.714Z,39.83
2023-01-27T00:05:48.989Z,30.40
2023-01-27T00:08:17.767Z,37.00
2023-01-27T00:10:45.078Z,36.65
2023-01-27T00:13:31.777Z,32.97
2023-01-27T00:15:59.256Z,36.55
2023-01-27T00:18:27.099Z,31.95
2023-01-27T00:21:12.976Z,39.53
2023-01-27T00:23:58.895Z,35.28
2023-01-27T00:26:26.190Z,36.70
2023-01-27T00:28:53.580Z,36.47
2023-01-27T00:31:39.225Z,43.25
2023-01-27T00:34:10.011Z,38.22
2023-01-27T00:36:41.410Z,34.10
2023-01-27T00:39:10.644Z,35.17
2023-01-27T00:41:38.281Z,36.70
2023-01-27T00:44:06.214Z,38.05
2023-01-27T00:46:34.564Z,38.85
2023-01-27T00:49:02.517Z,33.08
2023-01-27T00:51:30.917Z,34.10
2023-01-27T00:53:59.426Z,30.95
2023-01-27T00:56:28.272Z,30.30
2023-01-27T00:58:55.897Z,31.45
2023-01-27T01:01:23.744Z,28.60
2023-01-27T01:03:51.666Z,33.75
2023-01-27T01:06:19.898Z,27.00
2023-01-27T01:08:48.981Z,28.33
2023-01-27T01:11:17.522Z,31.52
2023-01-27T01:13:46.656Z,26.75
2023-01-27T01:16:20.543Z,24.20
2023-01-27T01:18:49.476Z,26.05
2023-01-27T01:21:17.107Z,31.95
2023-01-27T01:23:46.363Z,33.10
2023-01-27T01:26:15.417Z,32.63
2023-01-27T01:28:44.612Z,33.85
2023-01-27T01:31:15.601Z,30.70
2023-01-27T01:33:42.893Z,31.13
2023-01-27T01:36:15.781Z,32.55
2023-01-27T01:41:14.231Z,29.10
2023-01-27T01:43:41.647Z,30.77
2023-01-27T01:46:12.711Z,32.40
2023-01-27T01:48:57.794Z,25.75
2023-01-27T01:51:41.877Z,28.35
2023-01-27T01:54:27.642Z,25.55
2023-01-27T01:57:25.965Z,26.48
2023-01-27T02:00:00.880Z,25.15
2023-01-27T02:02:29.391Z,25.85
2023-01-27T02:05:02.621Z,24.67
2023-01-27T02:07:57.458Z,22.00
2023-01-27T02:10:25.241Z,27.23
2023-01-27T02:12:53.168Z,21.92
2023-01-27T02:15:21.699Z,27.70
2023-01-27T02:17:49.527Z,24.88
2023-01-27T02:20:47.192Z,29.70
2023-01-27T02:23:27.865Z,26.63
2023-01-27T02:26:20.588Z,25.35
2023-01-27T02:28:57.668Z,29.58
2023-01-27T02:31:25.454Z,27.08
2023-01-27T02:33:57.948Z,26.98
2023-01-27T02:36:28.129Z,22.67
2023-01-27T02:38:57.416Z,28.33
2023-01-27T02:41:50.006Z,29.23
2023-01-27T02:44:17.644Z,32.05
2023-01-27T02:46:44.777Z,24.80
2023-01-27T02:49:12.188Z,30.00
2023-01-27T02:51:39.636Z,25.02
2023-01-27T02:54:07.671Z,25.60
2023-01-27T02:56:35.405Z,24.58
2023-01-27T02:59:03.084Z,22.60
2023-01-27T03:04:02.975Z,29.15
2023-01-27T03:06:30.056Z,27.48
2023-01-27T03:08:57.415Z,28.63
2023-01-27T03:11:42.825Z,25.05
2023-01-27T03:14:10.289Z,28.38
2023-01-27T03:16:55.672Z,27.25
2023-01-27T03:19:22.844Z,25.33
2023-01-27T03:21:51.384Z,25.40
2023-01-27T03:24:20.631Z,28.33
2023-01-27T03:26:48.144Z,25.00
2023-01-27T03:29:35.609Z,25.15
2023-01-27T03:32:03.672Z,28.45
2023-01-27T03:34:31.851Z,30.40
2023-01-27T03:37:28.127Z,24.70
2023-01-27T03:40:14.994Z,24.58
2023-01-27T03:43:00.564Z,28.45
2023-01-27T03:45:46.210Z,26.05
2023-01-27T03:48:13.960Z,21.35
2023-01-27T03:50:53.077Z,23.42
2023-01-27T03:53:20.905Z,21.70
2023-01-27T03:55:48.137Z,22.35
2023-01-27T03:58:25.517Z,23.80
2023-01-27T04:00:58.624Z,23.52
2023-01-27T04:03:46.475Z,22.10
2023-01-27T04:06:55.125Z,20.58
2023-01-27T04:09:28.775Z,22.20
2023-01-27T04:12:00.466Z,28.08
2023-01-27T04:14:29.412Z,20.90
2023-01-27T04:17:04.602Z,20.02
2023-01-27T04:19:33.109Z,21.30
2023-01-27T04:22:04.799Z,18.08
2023-01-27T04:24:32.284Z,19.45
2023-01-27T04:27:07.711Z,19.25
2023-01-27T04:29:37.613Z,21.08
2023-01-27T04:32:08.417Z,22.58
2023-01-27T04:34:36.081Z,22.77
2023-01-27T04:37:05.558Z,23.95
2023-01-27T04:39:33.501Z,24.42
2023-01-27T04:42:01.028Z,26.08
2023-01-27T04:44:30.147Z,19.10
2023-01-27T04:46:57.244Z,21.40
2023-01-27T04:49:26.871Z,22.02
2023-01-27T04:51:54.928Z,22.95
2023-01-27T04:54:22.259Z,26.05
2023-01-27T04:57:05.766Z,23.13
2023-01-27T04:59:32.813Z,24.77
2023-01-27T05:01:59.964Z,20.65
2023-01-27T05:04:27.377Z,22.70
2023-01-27T05:06:55.834Z,22.05
2023-01-27T05:09:23.170Z,25.88
2023-01-27T05:11:50.344Z,25.27
2023-01-27T05:14:17.415Z,21.35
2023-01-27T05:16:44.741Z,19.75
2023-01-27T05:19:12.108Z,19.15
2023-01-27T05:21:39.407Z,23.27
2023-01-27T05:24:06.785Z,23.40
2023-01-27T05:26:33.934Z,25.27
2023-01-27T05:29:01.106Z,23.05
2023-01-27T05:31:31.926Z,19.77
2023-01-27T05:34:00.920Z,21.90
2023-01-27T05:36:29.168Z,22.73
2023-01-27T05:38:56.506Z,26.92
2023-01-27T05:41:23.643Z,27.55
2023-01-27T05:43:55.787Z,22.48
2023-01-27T05:46:29.408Z,30.52
2023-01-27T05:49:00.079Z,24.55
2023-01-27T05:51:30.856Z,27.52
2023-01-27T05:53:58.058Z,27.25
2023-01-27T05:56:26.627Z,28.80
2023-01-27T05:58:58.215Z,24.25
2023-01-27T06:01:31.582Z,26.27
2023-01-27T06:04:00.841Z,39.42
2023-01-27T06:06:29.663Z,33.33
2023-01-27T06:08:57.204Z,29.35
2023-01-27T06:11:25.280Z,31.90
2023-01-27T06:13:55.479Z,26.92
2023-01-27T06:16:24.306Z,25.67
2023-01-27T06:18:51.802Z,26.23
2023-01-27T06:21:20.582Z,30.73
2023-01-27T06:23:48.206Z,27.40
2023-01-27T06:26:17.933Z,27.27
2023-01-27T06:28:45.312Z,25.60
2023-01-27T06:31:18.723Z,29.08
2023-01-27T06:33:45.863Z,28.80
2023-01-27T06:36:18.935Z,25.88
2023-01-27T06:38:46.419Z,26.58
2023-01-27T06:41:13.737Z,26.40
2023-01-27T06:43:41.037Z,30.02
2023-01-27T06:46:08.179Z,31.98
2023-01-27T06:48:35.565Z,27.92
2023-01-27T06:51:02.697Z,26.13
2023-01-27T06:53:31.494Z,27.25
2023-01-27T06:56:00.379Z,32.90
2023-01-27T06:58:28.495Z,34.72
2023-01-27T07:00:55.943Z,25.77
2023-01-27T07:03:23.232Z,27.50
2023-01-27T07:05:51.094Z,25.35
2023-01-27T07:08:18.207Z,28.33
2023-01-27T07:13:58.361Z,24.13
2023-01-27T07:16:25.564Z,20.80
2023-01-27T07:18:52.679Z,25.17
2023-01-27T07:21:19.962Z,22.23
2023-01-27T07:23:47.302Z,23.02
2023-01-27T07:26:24.640Z,17.60
2023-01-27T07:28:52.876Z,22.25
2023-01-27T07:31:20.137Z,21.45
2023-01-27T07:33:47.384Z,20.85
2023-01-27T07:36:14.627Z,26.60
2023-01-27T07:38:41.887Z,27.48
2023-01-27T07:41:08.997Z,25.40
2023-01-27T07:43:36.229Z,29.55
2023-01-27T07:46:07.973Z,30.25
2023-01-27T07:48:35.139Z,34.15
2023-01-27T07:51:02.252Z,26.88
2023-01-27T07:53:29.330Z,28.52
2023-01-27T07:55:58.796Z,25.42
2023-01-27T07:58:25.949Z,19.80
2023-01-27T08:00:53.008Z,27.23
2023-01-27T08:03:25.587Z,26.60
2023-01-27T08:05:52.832Z,19.30
2023-01-27T08:08:19.983Z,20.60
2023-01-27T08:10:56.753Z,19.50
2023-01-27T08:13:24.477Z,17.92
2023-01-27T08:15:57.397Z,21.15
2023-01-27T08:20:54.472Z,21.13
2023-01-27T08:23:22.687Z,23.55
2023-01-27T08:25:55.224Z,21.20
2023-01-27T08:28:23.852Z,22.15
2023-01-27T08:30:52.688Z,14.55
2023-01-27T08:33:21.126Z,18.58
2023-01-27T08:35:49.344Z,18.65
2023-01-27T08:38:18.489Z,19.60
2023-01-27T08:40:47.509Z,18.90
2023-01-27T08:43:18.958Z,20.00
2023-01-27T08:45:47.116Z,17.85
2023-01-27T08:48:14.257Z,19.45
2023-01-27T08:50:41.313Z,17.98
2023-01-27T08:53:08.554Z,23.80
2023-01-27T08:55:35.621Z,22.90
2023-01-27T08:58:03.436Z,21.77
2023-01-27T09:00:30.592Z,17.40
2023-01-27T09:02:57.637Z,24.95
2023-01-27T09:05:24.695Z,22.50
2023-01-27T09:07:51.834Z,22.55
2023-01-27T09:10:19.516Z,18.63
2023-01-27T09:12:46.890Z,16.33
2023-01-27T09:15:15.203Z,16.38
2023-01-27T09:17:42.494Z,19.42
2023-01-27T09:20:10.692Z,19.17
2023-01-27T09:22:40.758Z,19.95
2023-01-27T09:25:11.350Z,26.17
2023-01-27T09:27:49.103Z,21.42
2023-01-27T09:30:16.781Z,22.42
2023-01-27T09:32:44.152Z,17.05
2023-01-27T09:35:11.855Z,21.65
2023-01-27T09:37:55.336Z,20.60
2023-01-27T09:40:34.361Z,21.30
2023-01-27T09:43:19.545Z,23.40
2023-01-27T09:46:12.944Z,20.52
2023-01-27T09:51:47.562Z,24.05
2023-01-27T09:54:29.424Z,20.45
2023-01-27T09:57:36.200Z,23.27
2023-01-27T10:00:41.445Z,18.17
2023-01-27T10:03:26.693Z,20.80
2023-01-27T10:06:21.224Z,22.35
2023-01-27T10:09:06.243Z,20.92
2023-01-27T10:11:45.303Z,23.83
2023-01-27T10:14:30.561Z,22.83
2023-01-27T10:17:00.539Z,19.27
2023-01-27T10:19:47.465Z,17.02
2023-01-27T10:22:34.307Z,18.52
2023-01-27T10:25:26.855Z,16.05
2023-01-27T10:27:58.413Z,18.75
2023-01-27T10:37:23.807Z,20.70
2023-01-27T10:40:42.478Z,18.47
2023-01-27T10:46:54.488Z,22.50
2023-01-27T10:49:49.822Z,27.10
2023-01-27T10:52:54.226Z,20.83
2023-01-27T11:04:59.018Z,25.65
2023-01-27T11:07:29.330Z,19.20
2023-01-27T11:10:28.048Z,17.75
2023-01-27T11:13:05.670Z,20.80
2023-01-27T11:15:38.409Z,23.05
